CYM weather

Chatham Seaplane Base
Chatham, Alaska, United States

Public forecast

Using degrees Fahrenheit for public forecast. Weather courtesy of forecast.io.

METAR (pilot weather report)

Closest report is Angoon Seaplane Base, 11.7 nm (21.6 km) E. Retrieved 2019/05/26 15:56 UTC (32 minutes ago):

PAGN 261556Z AUTO 00000KT 10SM CLR 11/08 A3006 RMK AO2 SLP169 T01110078

TAF (pilot weather forecast)

Closest forecast is Sitka Rocky Gutierrez Airport, 31.2 nm (57.7 km) SSW. Retrieved 2019/05/26 12:39 UTC (4 hours ago):

TAF PASI 261137Z 2612/2712 32004KT P6SM SKC FM262000 24008KT P6SM SKC